Time;durP1;ratioP1;P1;durP2;ratioP2;P2;SDS_P1;SDS_P2;PMS_P1;PMS_P2;Temp;Humidity;BMP_temperature;BMP_pressure;BME280_temperature;BME280_humidity;BME280_pressure;Samples;Min_cycle;Max_cycle;Signal;HPM_P1;HPM_P2
2023/03/30 00:02:22;;;;;;;6.75;4.00;;;;;;;;;;4990972;28;99172;-78
2023/03/30 00:04:51;;;;;;;8.50;3.65;;;;;;;;;;4972200;28;99973;-77
2023/03/30 00:07:18;;;;;;;10.43;3.53;;;;;;;;;;4970616;28;98808;-78
2023/03/30 00:09:45;;;;;;;17.15;4.60;;;;;;;;;;4970543;28;100175;-78
2023/03/30 00:12:12;;;;;;;7.45;3.70;;;;;;;;;;4975619;28;102029;-78
2023/03/30 00:14:41;;;;;;;9.73;3.63;;;;;;;;;;4990738;28;98851;-78
2023/03/30 00:17:08;;;;;;;8.20;3.50;;;;;;;;;;4988763;28;99166;-78
2023/03/30 00:19:38;;;;;;;8.23;3.63;;;;;;;;;;4990930;28;99967;-78
2023/03/30 00:22:04;;;;;;;12.73;3.35;;;;;;;;;;4988017;28;99362;-78
2023/03/30 00:24:31;;;;;;;11.10;3.80;;;;;;;;;;4989893;28;99425;-78
2023/03/30 00:26:57;;;;;;;11.48;3.75;;;;;;;;;;4990965;28;97882;-78
2023/03/30 00:29:24;;;;;;;9.85;3.65;;;;;;;;;;4989783;28;98706;-78
2023/03/30 00:31:50;;;;;;;9.57;3.60;;;;;;;;;;4990808;28;99161;-78
2023/03/30 00:34:17;;;;;;;10.73;3.33;;;;;;;;;;4989856;28;99248;-78
2023/03/30 00:36:45;;;;;;;8.05;3.33;;;;;;;;;;4990306;28;100038;-78
2023/03/30 00:39:12;;;;;;;11.43;3.97;;;;;;;;;;4970467;28;100491;-78
2023/03/30 00:41:38;;;;;;;8.65;3.35;;;;;;;;;;4973984;28;98587;-80
2023/03/30 00:44:06;;;;;;;10.10;3.30;;;;;;;;;;4969400;28;99587;-80
2023/03/30 00:46:32;;;;;;;16.33;3.88;;;;;;;;;;4975513;28;99253;-79
2023/03/30 00:49:03;;;;;;;7.38;3.35;;;;;;;;;;4970680;28;100375;-79
2023/03/30 00:51:31;;;;;;;4.30;3.00;;;;;;;;;;4971842;28;100241;-80
2023/03/30 00:54:09;;;;;;;10.85;3.22;;;;;;;;;;4976022;28;98567;-79
2023/03/30 00:56:36;;;;;;;7.82;3.53;;;;;;;;;;4994792;28;100239;-79
2023/03/30 00:59:03;;;;;;;7.25;2.70;;;;;;;;;;4993776;28;100410;-80
2023/03/30 01:01:33;;;;;;;10.00;2.90;;;;;;;;;;4995289;28;98651;-79
2023/03/30 01:04:04;;;;;;;4.15;2.40;;;;;;;;;;4996923;28;99222;-80
2023/03/30 01:06:32;;;;;;;12.63;2.97;;;;;;;;;;4993796;28;98590;-80
2023/03/30 01:08:59;;;;;;;8.05;2.30;;;;;;;;;;4994678;28;99417;-80
2023/03/30 01:11:26;;;;;;;4.35;2.35;;;;;;;;;;4989629;28;99783;-79
2023/03/30 01:13:57;;;;;;;5.88;2.53;;;;;;;;;;4994275;28;98576;-80
2023/03/30 01:16:30;;;;;;;7.38;2.50;;;;;;;;;;5001459;28;100304;-80
2023/03/30 01:18:56;;;;;;;7.32;3.03;;;;;;;;;;5021418;28;99409;-80
2023/03/30 01:21:54;;;;;;;7.03;2.70;;;;;;;;;;5009268;28;98766;-79
2023/03/30 01:24:30;;;;;;;6.32;2.63;;;;;;;;;;5000937;28;99467;-80
2023/03/30 01:26:59;;;;;;;10.40;2.65;;;;;;;;;;4997653;28;98648;-79
2023/03/30 01:29:45;;;;;;;9.63;2.67;;;;;;;;;;4981517;28;99381;-79
2023/03/30 01:32:11;;;;;;;7.82;2.70;;;;;;;;;;4974667;28;99599;-79
2023/03/30 01:34:38;;;;;;;9.63;2.55;;;;;;;;;;4975542;28;98719;-79
2023/03/30 01:37:16;;;;;;;7.63;2.65;;;;;;;;;;4993243;28;100296;-79
2023/03/30 01:39:53;;;;;;;7.88;2.72;;;;;;;;;;5014017;28;99668;-79
2023/03/30 01:42:19;;;;;;;3.33;2.58;;;;;;;;;;5002959;28;97491;-79
2023/03/30 01:44:57;;;;;;;10.40;3.22;;;;;;;;;;5004795;28;97879;-79
2023/03/30 01:47:33;;;;;;;10.15;3.47;;;;;;;;;;5020896;28;99692;-81
2023/03/30 01:50:02;;;;;;;10.50;3.40;;;;;;;;;;4999177;28;99468;-79
2023/03/30 01:52:37;;;;;;;5.85;3.10;;;;;;;;;;5015337;28;98498;-79
2023/03/30 01:55:07;;;;;;;6.40;2.88;;;;;;;;;;5014916;28;98477;-80
2023/03/30 01:57:40;;;;;;;10.18;3.28;;;;;;;;;;5016470;28;98588;-79
2023/03/30 02:00:17;;;;;;;6.07;3.00;;;;;;;;;;5016437;28;98373;-79
2023/03/30 02:02:47;;;;;;;4.65;2.20;;;;;;;;;;5015413;28;98509;-79
2023/03/30 02:05:16;;;;;;;6.70;2.47;;;;;;;;;;5016732;28;98613;-79
2023/03/30 02:07:46;;;;;;;9.25;3.00;;;;;;;;;;5017057;28;97892;-79
2023/03/30 02:10:14;;;;;;;13.05;2.70;;;;;;;;;;5000942;28;98521;-78
2023/03/30 02:12:40;;;;;;;5.85;2.60;;;;;;;;;;4979464;28;100731;-78
2023/03/30 02:15:08;;;;;;;8.32;2.75;;;;;;;;;;4993908;28;99445;-79
2023/03/30 02:17:34;;;;;;;12.50;3.15;;;;;;;;;;4981428;28;100070;-78
2023/03/30 02:20:03;;;;;;;6.15;2.67;;;;;;;;;;4977951;28;99453;-79
2023/03/30 02:22:31;;;;;;;6.32;2.92;;;;;;;;;;5006759;28;98528;-78
2023/03/30 02:24:57;;;;;;;12.50;2.70;;;;;;;;;;4980923;28;101556;-79
2023/03/30 02:27:24;;;;;;;10.77;3.20;;;;;;;;;;4978396;28;99537;-78
2023/03/30 02:29:51;;;;;;;6.30;2.47;;;;;;;;;;4993191;28;98656;-78
2023/03/30 02:32:19;;;;;;;9.93;3.20;;;;;;;;;;4994707;28;100618;-78
2023/03/30 02:34:48;;;;;;;9.40;2.97;;;;;;;;;;4991873;28;98486;-77
2023/03/30 02:37:24;;;;;;;3.88;2.30;;;;;;;;;;4992287;28;100857;-78
2023/03/30 02:40:12;;;;;;;3.10;1.90;;;;;;;;;;4988012;28;101000;-78
2023/03/30 02:42:58;;;;;;;6.57;2.28;;;;;;;;;;4991678;28;98531;-77
2023/03/30 02:45:25;;;;;;;7.93;2.03;;;;;;;;;;4991178;28;99412;-78
2023/03/30 02:47:58;;;;;;;5.85;2.30;;;;;;;;;;4990941;28;99764;-77
2023/03/30 02:50:32;;;;;;;5.93;1.85;;;;;;;;;;4978895;28;98879;-77
2023/03/30 02:53:09;;;;;;;6.88;2.28;;;;;;;;;;4986184;28;99164;-78
2023/03/30 02:55:38;;;;;;;3.88;1.98;;;;;;;;;;4986266;28;100537;-77
2023/03/30 02:58:11;;;;;;;7.43;2.33;;;;;;;;;;4990736;28;100291;-77
2023/03/30 03:00:42;;;;;;;6.70;1.83;;;;;;;;;;4984254;28;99661;-79
2023/03/30 03:03:32;;;;;;;6.68;2.28;;;;;;;;;;4974902;28;98690;-79
2023/03/30 03:06:01;;;;;;;3.70;1.80;;;;;;;;;;4982010;28;99493;-79
2023/03/30 03:08:31;;;;;;;3.53;1.55;;;;;;;;;;4991150;28;99535;-79
2023/03/30 03:10:57;;;;;;;4.70;1.85;;;;;;;;;;4990248;28;99480;-79
2023/03/30 03:13:24;;;;;;;8.00;2.08;;;;;;;;;;4974839;28;99696;-78
2023/03/30 03:15:54;;;;;;;5.15;1.77;;;;;;;;;;4983975;28;99436;-79
2023/03/30 03:18:23;;;;;;;6.70;2.10;;;;;;;;;;4993810;28;98559;-79
2023/03/30 03:20:50;;;;;;;5.13;1.67;;;;;;;;;;4989787;28;100313;-79
2023/03/30 03:23:16;;;;;;;6.78;1.92;;;;;;;;;;4990424;28;97896;-78
2023/03/30 03:25:43;;;;;;;5.65;1.70;;;;;;;;;;4991092;28;99535;-78
2023/03/30 03:28:09;;;;;;;9.75;1.90;;;;;;;;;;4989421;28;100466;-78
2023/03/30 03:30:36;;;;;;;2.53;1.27;;;;;;;;;;4974142;28;99338;-78
2023/03/30 03:33:02;;;;;;;7.93;1.92;;;;;;;;;;4986187;28;100968;-80
2023/03/30 03:35:30;;;;;;;8.48;1.70;;;;;;;;;;4990516;28;100780;-80
2023/03/30 03:37:56;;;;;;;5.88;1.90;;;;;;;;;;4992537;28;98708;-80
2023/03/30 03:40:22;;;;;;;3.63;1.52;;;;;;;;;;4990278;28;100611;-80
2023/03/30 03:42:49;;;;;;;9.75;2.15;;;;;;;;;;4989890;28;98655;-79
2023/03/30 03:45:15;;;;;;;7.43;1.55;;;;;;;;;;4987719;28;102056;-79
2023/03/30 03:47:42;;;;;;;6.43;1.90;;;;;;;;;;4990182;28;98840;-80
2023/03/30 03:50:08;;;;;;;6.47;1.63;;;;;;;;;;4972065;28;98613;-79
2023/03/30 03:52:35;;;;;;;3.08;1.63;;;;;;;;;;4972033;28;99521;-79
2023/03/30 03:55:03;;;;;;;9.10;1.77;;;;;;;;;;4977162;28;100263;-79
2023/03/30 03:57:29;;;;;;;6.45;1.67;;;;;;;;;;4968585;28;98562;-78
2023/03/30 03:59:58;;;;;;;3.88;1.23;;;;;;;;;;4990608;28;100504;-78
2023/03/30 04:02:25;;;;;;;6.18;1.67;;;;;;;;;;4990660;28;98473;-79
2023/03/30 04:04:52;;;;;;;5.70;1.58;;;;;;;;;;4989579;28;99067;-79
2023/03/30 04:07:19;;;;;;;7.82;1.58;;;;;;;;;;4996114;28;101547;-79
2023/03/30 04:09:45;;;;;;;7.35;1.75;;;;;;;;;;4985783;28;99596;-79
2023/03/30 04:12:11;;;;;;;5.05;1.60;;;;;;;;;;4981539;28;99258;-79
2023/03/30 04:14:38;;;;;;;4.22;1.33;;;;;;;;;;4981577;28;100669;-79
2023/03/30 04:17:05;;;;;;;7.57;1.85;;;;;;;;;;4984720;28;99110;-79
2023/03/30 04:19:31;;;;;;;5.20;1.63;;;;;;;;;;4987187;28;100295;-79
2023/03/30 04:21:58;;;;;;;7.05;1.63;;;;;;;;;;4993237;28;101983;-79
2023/03/30 04:24:28;;;;;;;8.98;2.05;;;;;;;;;;4985689;28;99984;-79
2023/03/30 04:26:56;;;;;;;7.75;2.28;;;;;;;;;;4973439;28;100939;-80
2023/03/30 04:29:23;;;;;;;7.43;1.70;;;;;;;;;;4989546;28;98549;-79
2023/03/30 04:31:49;;;;;;;10.40;1.40;;;;;;;;;;4990678;28;99228;-78
2023/03/30 04:34:20;;;;;;;10.07;1.90;;;;;;;;;;4988947;28;99533;-78
2023/03/30 04:36:46;;;;;;;;;;;;;;;;;;4988734;28;97761;-78
2023/03/30 04:39:16;;;;;;;9.98;2.22;;;;;;;;;;4990353;28;129096;-79
2023/03/30 04:41:44;;;;;;;9.50;2.13;;;;;;;;;;4970107;28;99613;-78
2023/03/30 04:44:11;;;;;;;6.45;2.47;;;;;;;;;;4978916;28;99295;-78
2023/03/30 04:46:37;;;;;;;5.72;1.60;;;;;;;;;;4978648;28;100868;-77
2023/03/30 04:49:03;;;;;;;10.20;2.63;;;;;;;;;;4977740;28;98466;-78
2023/03/30 04:51:30;;;;;;;6.32;1.60;;;;;;;;;;4987501;28;99139;-77
2023/03/30 04:53:56;;;;;;;14.25;2.17;;;;;;;;;;4972157;28;99470;-77
2023/03/30 04:56:23;;;;;;;6.25;1.65;;;;;;;;;;4983274;28;98529;-77
2023/03/30 04:58:49;;;;;;;5.15;1.60;;;;;;;;;;4989963;28;99536;-78
2023/03/30 05:01:15;;;;;;;6.47;2.08;;;;;;;;;;4989249;28;99238;-78
2023/03/30 05:03:42;;;;;;;11.93;2.60;;;;;;;;;;4990100;28;98575;-78
2023/03/30 05:06:08;;;;;;;5.72;1.52;;;;;;;;;;4992405;28;100025;-78
2023/03/30 05:08:34;;;;;;;5.75;2.00;;;;;;;;;;4988286;28;99267;-78
2023/03/30 05:11:03;;;;;;;8.60;2.15;;;;;;;;;;4989132;28;101256;-78
2023/03/30 05:13:30;;;;;;;10.82;1.90;;;;;;;;;;4987922;28;99840;-78
2023/03/30 05:15:56;;;;;;;12.10;2.58;;;;;;;;;;4988189;28;98662;-78
2023/03/30 05:18:23;;;;;;;13.48;2.88;;;;;;;;;;4999593;28;100499;-78
2023/03/30 05:20:49;;;;;;;8.82;2.60;;;;;;;;;;4987695;28;98991;-78
2023/03/30 05:23:16;;;;;;;8.90;2.47;;;;;;;;;;4988278;28;98525;-78
2023/03/30 05:25:47;;;;;;;9.70;2.50;;;;;;;;;;4993162;28;100395;-78
2023/03/30 05:28:15;;;;;;;9.95;2.70;;;;;;;;;;4970209;28;98583;-77
2023/03/30 05:30:45;;;;;;;15.27;2.30;;;;;;;;;;4968238;28;99149;-77
2023/03/30 05:33:12;;;;;;;11.33;2.67;;;;;;;;;;4968863;28;100447;-77
2023/03/30 05:35:38;;;;;;;10.30;2.47;;;;;;;;;;4978727;28;98553;-77
2023/03/30 05:38:06;;;;;;;16.10;2.95;;;;;;;;;;4988910;28;100383;-77
2023/03/30 05:40:32;;;;;;;12.35;2.58;;;;;;;;;;4979384;28;100009;-77
2023/03/30 05:42:59;;;;;;;9.48;2.58;;;;;;;;;;4988073;28;98520;-76
2023/03/30 05:45:26;;;;;;;11.60;2.70;;;;;;;;;;4992291;28;98973;-76
2023/03/30 05:47:53;;;;;;;10.88;2.97;;;;;;;;;;4990851;28;99503;-77
2023/03/30 05:50:20;;;;;;;11.02;2.65;;;;;;;;;;4987456;28;99557;-76
2023/03/30 05:52:47;;;;;;;9.35;2.60;;;;;;;;;;4981041;28;100482;-76
2023/03/30 05:55:14;;;;;;;9.15;2.63;;;;;;;;;;4975912;28;98592;-76
2023/03/30 05:57:40;;;;;;;16.48;3.53;;;;;;;;;;4984685;28;102922;-77
2023/03/30 06:00:09;;;;;;;12.35;2.80;;;;;;;;;;4990551;28;99676;-78
2023/03/30 06:02:35;;;;;;;15.20;2.90;;;;;;;;;;4985977;28;99066;-78
2023/03/30 06:05:02;;;;;;;16.25;3.40;;;;;;;;;;4989198;28;98679;-78
2023/03/30 06:07:29;;;;;;;10.25;2.63;;;;;;;;;;4989886;28;99433;-77
2023/03/30 06:09:58;;;;;;;15.88;2.88;;;;;;;;;;4994894;28;98611;-78
2023/03/30 06:12:25;;;;;;;16.98;3.22;;;;;;;;;;4977388;28;99577;-78
2023/03/30 06:14:51;;;;;;;16.42;3.20;;;;;;;;;;4972674;28;97803;-77
2023/03/30 06:17:18;;;;;;;11.85;2.70;;;;;;;;;;4981526;28;99979;-77
2023/03/30 06:19:44;;;;;;;15.15;3.00;;;;;;;;;;4991812;28;99813;-76
2023/03/30 06:22:10;;;;;;;13.57;3.67;;;;;;;;;;4991717;28;99229;-77
2023/03/30 06:24:37;;;;;;;13.35;2.78;;;;;;;;;;4992039;28;99728;-78
2023/03/30 06:27:03;;;;;;;16.05;3.25;;;;;;;;;;4979349;28;103700;-78
2023/03/30 06:29:30;;;;;;;20.75;3.90;;;;;;;;;;4990311;28;98562;-78
2023/03/30 06:31:57;;;;;;;22.48;3.92;;;;;;;;;;4994046;28;98550;-77
2023/03/30 06:34:24;;;;;;;16.17;3.22;;;;;;;;;;4981478;28;98541;-78
2023/03/30 06:36:50;;;;;;;15.55;3.25;;;;;;;;;;4972611;28;102694;-78
2023/03/30 06:39:17;;;;;;;14.73;3.03;;;;;;;;;;4982731;28;99704;-79
2023/03/30 06:41:43;;;;;;;22.60;3.75;;;;;;;;;;4985323;28;98771;-78
2023/03/30 06:44:13;;;;;;;13.32;3.50;;;;;;;;;;4980588;28;100681;-78
2023/03/30 06:46:40;;;;;;;23.27;4.32;;;;;;;;;;4988258;28;102016;-79
2023/03/30 06:49:07;;;;;;;21.75;3.40;;;;;;;;;;4990899;28;98544;-78
2023/03/30 06:51:36;;;;;;;23.48;3.05;;;;;;;;;;4972033;28;99649;-78
2023/03/30 06:54:03;;;;;;;18.33;3.47;;;;;;;;;;4974718;28;100566;-79
2023/03/30 06:56:30;;;;;;;19.83;3.88;;;;;;;;;;4986554;28;100515;-78
2023/03/30 06:58:56;;;;;;;21.52;3.50;;;;;;;;;;4970961;28;99565;-79
2023/03/30 07:01:22;;;;;;;13.70;2.47;;;;;;;;;;4982699;28;98653;-79
2023/03/30 07:03:51;;;;;;;20.13;3.03;;;;;;;;;;4982618;28;100299;-79
2023/03/30 07:06:18;;;;;;;17.35;2.70;;;;;;;;;;4989479;28;100474;-79
2023/03/30 07:08:46;;;;;;;23.33;3.42;;;;;;;;;;4986201;28;100846;-79
2023/03/30 07:11:12;;;;;;;29.00;4.82;;;;;;;;;;4990468;28;100681;-79
2023/03/30 07:13:39;;;;;;;22.23;2.95;;;;;;;;;;4990987;28;99459;-79
2023/03/30 07:16:06;;;;;;;24.35;3.95;;;;;;;;;;4991913;28;98520;-80
2023/03/30 07:18:33;;;;;;;26.02;3.80;;;;;;;;;;4982780;28;99701;-80
2023/03/30 07:20:59;;;;;;;22.25;4.05;;;;;;;;;;4978724;28;100203;-77
2023/03/30 07:23:26;;;;;;;24.83;4.10;;;;;;;;;;4985714;28;99257;-78
2023/03/30 07:25:53;;;;;;;24.13;3.30;;;;;;;;;;4983178;28;99436;-78
2023/03/30 07:28:19;;;;;;;17.92;3.47;;;;;;;;;;4989919;28;97860;-77
2023/03/30 07:30:46;;;;;;;19.40;3.22;;;;;;;;;;4990696;28;98460;-77
2023/03/30 07:33:13;;;;;;;24.17;3.67;;;;;;;;;;4985653;28;99176;-77
2023/03/30 07:35:46;;;;;;;21.02;3.65;;;;;;;;;;4991297;28;99245;-77
2023/03/30 07:38:13;;;;;;;21.20;3.83;;;;;;;;;;4990340;28;99687;-78
2023/03/30 07:40:39;;;;;;;24.08;4.00;;;;;;;;;;4991238;28;98493;-78
2023/03/30 07:43:06;;;;;;;21.15;3.70;;;;;;;;;;4982293;28;99267;-77
2023/03/30 07:45:32;;;;;;;22.27;3.50;;;;;;;;;;4975624;28;99699;-78
2023/03/30 07:47:59;;;;;;;19.65;4.60;;;;;;;;;;4999772;28;98621;-78
2023/03/30 07:50:26;;;;;;;23.67;4.13;;;;;;;;;;4989188;28;100356;-77
2023/03/30 07:52:53;;;;;;;27.38;4.75;;;;;;;;;;4989650;28;99744;-78
2023/03/30 07:55:20;;;;;;;18.55;3.47;;;;;;;;;;4989900;28;98831;-77
2023/03/30 07:57:46;;;;;;;17.75;3.85;;;;;;;;;;4993478;28;99175;-78
2023/03/30 08:00:13;;;;;;;27.45;4.07;;;;;;;;;;4988456;28;99805;-77
2023/03/30 08:02:41;;;;;;;20.48;3.80;;;;;;;;;;4982024;28;101130;-78
2023/03/30 08:05:08;;;;;;;17.77;3.45;;;;;;;;;;4977774;28;99475;-77
2023/03/30 08:07:35;;;;;;;24.67;4.07;;;;;;;;;;4984416;28;98625;-77
2023/03/30 08:10:02;;;;;;;18.88;3.20;;;;;;;;;;4973011;28;99720;-78
2023/03/30 08:12:28;;;;;;;20.83;3.60;;;;;;;;;;4989977;28;102298;-78
2023/03/30 08:14:54;;;;;;;20.95;3.55;;;;;;;;;;4988615;28;98591;-78
2023/03/30 08:17:21;;;;;;;24.42;3.75;;;;;;;;;;4989567;28;99565;-78
2023/03/30 08:19:47;;;;;;;24.33;3.85;;;;;;;;;;4989948;28;102618;-78
2023/03/30 08:22:14;;;;;;;20.75;3.60;;;;;;;;;;4980869;28;98958;-79
2023/03/30 08:24:40;;;;;;;31.52;4.60;;;;;;;;;;4978766;28;100197;-79
2023/03/30 08:27:07;;;;;;;22.20;4.45;;;;;;;;;;4987089;28;98690;-79
2023/03/30 08:29:34;;;;;;;33.15;4.90;;;;;;;;;;4986401;28;99527;-79
2023/03/30 08:32:00;;;;;;;28.95;4.80;;;;;;;;;;4986865;28;99628;-78
2023/03/30 08:34:27;;;;;;;30.67;5.05;;;;;;;;;;4986726;28;98547;-78
2023/03/30 08:36:54;;;;;;;32.03;5.05;;;;;;;;;;4988275;28;99137;-78
2023/03/30 08:39:20;;;;;;;30.70;4.50;;;;;;;;;;4986174;28;99759;-78
2023/03/30 08:42:07;;;;;;;30.00;4.60;;;;;;;;;;4993768;28;97757;-78
2023/03/30 08:44:35;;;;;;;26.75;5.05;;;;;;;;;;4973350;28;99494;-78
2023/03/30 08:47:03;;;;;;;22.75;4.38;;;;;;;;;;4989910;28;98850;-78
2023/03/30 08:49:32;;;;;;;23.85;4.55;;;;;;;;;;4988653;28;99379;-78
2023/03/30 08:52:01;;;;;;;27.75;3.90;;;;;;;;;;4982987;28;98715;-78
2023/03/30 08:54:29;;;;;;;22.87;4.47;;;;;;;;;;4975791;28;98859;-78
2023/03/30 08:56:59;;;;;;;25.35;4.03;;;;;;;;;;4989773;28;102777;-79
2023/03/30 08:59:44;;;;;;;28.27;5.05;;;;;;;;;;4983878;28;100146;-79
2023/03/30 09:02:29;;;;;;;26.23;4.35;;;;;;;;;;4985009;28;98545;-78
2023/03/30 09:05:17;;;;;;;20.25;3.00;;;;;;;;;;4992013;28;99400;-79
2023/03/30 09:08:03;;;;;;;22.40;3.75;;;;;;;;;;4982418;28;97852;-78
2023/03/30 09:10:30;;;;;;;23.05;4.30;;;;;;;;;;4972544;28;100408;-79
2023/03/30 09:12:59;;;;;;;16.65;3.60;;;;;;;;;;4979313;28;98912;-79
2023/03/30 09:15:30;;;;;;;28.35;4.55;;;;;;;;;;4986413;28;99424;-79
2023/03/30 09:18:14;;;;;;;25.92;4.68;;;;;;;;;;4993345;28;100103;-79
2023/03/30 09:20:42;;;;;;;25.85;4.25;;;;;;;;;;4991536;28;101055;-79
2023/03/30 09:23:16;;;;;;;32.67;5.68;;;;;;;;;;4986510;28;99016;-79
2023/03/30 09:25:53;;;;;;;27.80;4.90;;;;;;;;;;4976992;28;98735;-79
2023/03/30 09:28:37;;;;;;;27.15;5.72;;;;;;;;;;4994045;28;99523;-79
2023/03/30 09:31:13;;;;;;;27.23;5.93;;;;;;;;;;4992378;28;99286;-78
2023/03/30 09:33:50;;;;;;;29.67;5.68;;;;;;;;;;4990220;28;99287;-79
2023/03/30 09:36:30;;;;;;;28.10;4.57;;;;;;;;;;4972729;28;98535;-79
2023/03/30 09:38:56;;;;;;;28.20;4.00;;;;;;;;;;4988332;28;99097;-79
2023/03/30 09:41:37;;;;;;;34.97;5.93;;;;;;;;;;4984449;28;100215;-79
2023/03/30 09:44:08;;;;;;;28.55;4.63;;;;;;;;;;4989567;28;98579;-79
2023/03/30 09:46:36;;;;;;;38.17;5.40;;;;;;;;;;4983789;28;99854;-79
2023/03/30 09:49:15;;;;;;;22.65;4.28;;;;;;;;;;5002241;28;99311;-79
2023/03/30 09:52:02;;;;;;;27.23;5.53;;;;;;;;;;4990290;28;100202;-79
2023/03/30 09:54:36;;;;;;;29.80;4.70;;;;;;;;;;4975349;28;100656;-78
2023/03/30 09:57:03;;;;;;;29.20;4.72;;;;;;;;;;4972438;28;98804;-79
2023/03/30 09:59:30;;;;;;;30.42;5.07;;;;;;;;;;4984566;28;98028;-78
2023/03/30 10:02:07;;;;;;;34.00;5.65;;;;;;;;;;4989862;28;99635;-78
2023/03/30 10:04:57;;;;;;;32.55;5.32;;;;;;;;;;4979863;28;98571;-78
2023/03/30 10:07:25;;;;;;;37.78;5.25;;;;;;;;;;4985452;28;100576;-79
2023/03/30 10:09:51;;;;;;;35.40;5.38;;;;;;;;;;4985726;28;100146;-78
2023/03/30 10:12:18;;;;;;;34.22;5.50;;;;;;;;;;4982866;28;98589;-79
2023/03/30 10:14:45;;;;;;;37.97;5.32;;;;;;;;;;4989028;28;99563;-79
2023/03/30 10:17:19;;;;;;;26.73;4.97;;;;;;;;;;4992350;28;98686;-79
2023/03/30 10:19:46;;;;;;;33.78;6.13;;;;;;;;;;4992603;28;99396;-79
2023/03/30 10:22:18;;;;;;;29.48;5.05;;;;;;;;;;4990439;28;100331;-79
2023/03/30 10:24:52;;;;;;;43.95;7.18;;;;;;;;;;4990207;28;98042;-79
2023/03/30 10:27:18;;;;;;;30.77;6.35;;;;;;;;;;4981532;28;99018;-80
2023/03/30 10:29:45;;;;;;;39.55;6.95;;;;;;;;;;4990172;28;99712;-80
2023/03/30 10:32:20;;;;;;;33.85;5.93;;;;;;;;;;4988567;28;99217;-79
2023/03/30 10:34:49;;;;;;;38.45;6.00;;;;;;;;;;4987886;28;100053;-79
2023/03/30 10:37:20;;;;;;;38.50;6.40;;;;;;;;;;4991586;28;98568;-79
2023/03/30 10:39:47;;;;;;;41.72;6.85;;;;;;;;;;4991781;28;99364;-79
2023/03/30 10:42:15;;;;;;;38.72;5.65;;;;;;;;;;4990946;28;99581;-79
2023/03/30 10:44:52;;;;;;;32.22;5.80;;;;;;;;;;4978609;28;98606;-78
2023/03/30 10:47:28;;;;;;;44.13;6.70;;;;;;;;;;4988713;28;99194;-79
2023/03/30 10:50:11;;;;;;;33.83;6.13;;;;;;;;;;4986420;28;98960;-79
2023/03/30 10:52:47;;;;;;;33.28;5.95;;;;;;;;;;4993077;28;98572;-79
2023/03/30 10:55:40;;;;;;;41.38;6.70;;;;;;;;;;4992079;28;98968;-80
2023/03/30 10:58:14;;;;;;;31.45;6.05;;;;;;;;;;4993498;28;99492;-79
2023/03/30 11:00:43;;;;;;;28.58;6.28;;;;;;;;;;4985139;28;100258;-80
2023/03/30 11:03:18;;;;;;;30.07;5.73;;;;;;;;;;4982239;28;100656;-80
2023/03/30 11:05:47;;;;;;;31.77;5.60;;;;;;;;;;4980261;28;98519;-80
2023/03/30 11:08:22;;;;;;;34.55;6.40;;;;;;;;;;4990648;28;99200;-79
2023/03/30 11:10:51;;;;;;;32.65;5.65;;;;;;;;;;4991047;28;99501;-79
2023/03/30 11:13:21;;;;;;;36.77;5.53;;;;;;;;;;4990879;28;98697;-79
2023/03/30 11:15:51;;;;;;;36.73;5.77;;;;;;;;;;4989613;28;99184;-79
2023/03/30 11:18:20;;;;;;;35.03;5.50;;;;;;;;;;4982700;28;99368;-79
2023/03/30 11:21:01;;;;;;;29.90;5.63;;;;;;;;;;4981333;28;98497;-79
2023/03/30 11:23:31;;;;;;;29.83;5.80;;;;;;;;;;4971283;28;100877;-79
2023/03/30 11:26:07;;;;;;;37.13;5.22;;;;;;;;;;4971461;28;98510;-79
2023/03/30 11:28:33;;;;;;;28.42;5.50;;;;;;;;;;4982213;28;100347;-79
2023/03/30 11:31:03;;;;;;;30.23;4.93;;;;;;;;;;4990619;28;102696;-79
2023/03/30 11:33:35;;;;;;;28.40;4.90;;;;;;;;;;4972770;28;98641;-79
2023/03/30 11:36:17;;;;;;;27.98;4.88;;;;;;;;;;4970564;28;99572;-78
2023/03/30 11:38:59;;;;;;;35.38;5.35;;;;;;;;;;4975507;28;99483;-79
2023/03/30 11:41:43;;;;;;;28.70;5.80;;;;;;;;;;4990253;28;98441;-78
2023/03/30 11:44:10;;;;;;;36.20;5.28;;;;;;;;;;4993339;28;98822;-79
2023/03/30 11:46:45;;;;;;;32.97;5.50;;;;;;;;;;4996549;28;98501;-79
2023/03/30 11:49:20;;;;;;;23.08;4.10;;;;;;;;;;4986046;28;99511;-79
2023/03/30 11:52:05;;;;;;;22.77;4.10;;;;;;;;;;4989487;28;99596;-78
2023/03/30 11:54:50;;;;;;;27.77;4.70;;;;;;;;;;4977748;28;98561;-79
2023/03/30 11:57:31;;;;;;;37.28;5.00;;;;;;;;;;4973490;28;99755;-77
2023/03/30 12:00:11;;;;;;;30.02;4.55;;;;;;;;;;5000952;28;100802;-78
2023/03/30 12:02:43;;;;;;;32.77;5.77;;;;;;;;;;4978471;28;98704;-80
2023/03/30 12:05:30;;;;;;;30.42;5.13;;;;;;;;;;4990516;28;100723;-78
2023/03/30 12:08:19;;;;;;;32.30;5.45;;;;;;;;;;4971337;28;97861;-78
2023/03/30 12:10:50;;;;;;;28.37;5.33;;;;;;;;;;4987751;28;98671;-78
2023/03/30 12:13:17;;;;;;;20.42;4.45;;;;;;;;;;4976209;28;99731;-78
2023/03/30 12:16:06;;;;;;;34.42;4.97;;;;;;;;;;4988367;28;99656;-79
2023/03/30 12:18:33;;;;;;;32.97;5.55;;;;;;;;;;4972111;28;99023;-79
2023/03/30 12:21:28;;;;;;;36.80;5.22;;;;;;;;;;4977956;28;102723;-79
2023/03/30 12:24:16;;;;;;;31.52;5.97;;;;;;;;;;4966868;28;98981;-78
2023/03/30 12:26:43;;;;;;;34.08;4.95;;;;;;;;;;4965070;28;99103;-79
2023/03/30 12:29:50;;;;;;;30.98;5.88;;;;;;;;;;4961270;28;99418;-79
2023/03/30 12:32:21;;;;;;;24.75;4.55;;;;;;;;;;4933205;28;98987;-78
2023/03/30 12:34:50;;;;;;;25.42;4.53;;;;;;;;;;4955027;28;99141;-78
2023/03/30 12:37:27;;;;;;;30.02;5.55;;;;;;;;;;4952578;28;98807;-79
2023/03/30 12:39:57;;;;;;;35.55;6.20;;;;;;;;;;4948529;28;98922;-78
2023/03/30 12:42:33;;;;;;;32.40;5.60;;;;;;;;;;4962685;28;101335;-79
2023/03/30 12:45:08;;;;;;;35.15;6.40;;;;;;;;;;4954308;28;98947;-79
2023/03/30 12:47:50;;;;;;;32.88;5.65;;;;;;;;;;4961321;28;99394;-79
2023/03/30 12:50:22;;;;;;;34.58;5.70;;;;;;;;;;4956910;28;99423;-79
2023/03/30 12:53:07;;;;;;;35.55;6.18;;;;;;;;;;4969953;28;98691;-79
2023/03/30 12:55:33;;;;;;;22.77;5.22;;;;;;;;;;4951578;28;99916;-78
2023/03/30 12:58:18;;;;;;;31.52;5.95;;;;;;;;;;4937562;28;98773;-78
2023/03/30 13:00:54;;;;;;;34.05;6.05;;;;;;;;;;4945385;28;99407;-79
2023/03/30 13:03:33;;;;;;;39.85;5.85;;;;;;;;;;4940901;28;99648;-78
2023/03/30 13:06:00;;;;;;;29.30;5.53;;;;;;;;;;4933262;28;98513;-78
2023/03/30 13:08:29;;;;;;;30.85;5.18;;;;;;;;;;4936239;28;99294;-78
2023/03/30 13:11:11;;;;;;;32.10;5.07;;;;;;;;;;4937081;28;99516;-78
2023/03/30 13:13:57;;;;;;;31.58;5.53;;;;;;;;;;4934383;28;98714;-79
2023/03/30 13:16:42;;;;;;;32.53;5.50;;;;;;;;;;4938153;28;99622;-78
2023/03/30 13:19:13;;;;;;;36.90;6.55;;;;;;;;;;4944873;28;99019;-79
2023/03/30 13:21:46;;;;;;;34.88;6.35;;;;;;;;;;4944175;28;99761;-78
2023/03/30 13:24:30;;;;;;;28.48;5.60;;;;;;;;;;4953183;28;99895;-78
2023/03/30 13:27:09;;;;;;;32.88;5.18;;;;;;;;;;4953397;28;97860;-78
2023/03/30 13:29:36;;;;;;;36.55;5.30;;;;;;;;;;4950298;28;98966;-78
2023/03/30 13:32:03;;;;;;;32.63;5.00;;;;;;;;;;4948446;28;99936;-78
2023/03/30 13:34:33;;;;;;;39.05;6.63;;;;;;;;;;4945595;28;99408;-78
2023/03/30 13:37:11;;;;;;;33.17;6.22;;;;;;;;;;4933939;28;99975;-78
2023/03/30 13:39:42;;;;;;;42.45;6.65;;;;;;;;;;4940345;28;99438;-78
2023/03/30 13:42:14;;;;;;;32.78;5.70;;;;;;;;;;4960901;28;99255;-78
2023/03/30 13:44:45;;;;;;;33.47;5.13;;;;;;;;;;4953567;28;99457;-78
2023/03/30 13:47:15;;;;;;;35.58;6.40;;;;;;;;;;4951986;28;99459;-78
2023/03/30 13:49:49;;;;;;;29.97;5.50;;;;;;;;;;4945375;28;99738;-78
2023/03/30 13:52:17;;;;;;;38.58;5.57;;;;;;;;;;4938965;28;98737;-78
2023/03/30 13:54:44;;;;;;;30.73;5.70;;;;;;;;;;4950430;28;99050;-79
2023/03/30 13:57:12;;;;;;;22.92;4.43;;;;;;;;;;4971732;28;99224;-79
2023/03/30 13:59:41;;;;;;;33.45;5.85;;;;;;;;;;4988240;28;101240;-79
2023/03/30 14:02:12;;;;;;;34.55;5.50;;;;;;;;;;4995334;28;98722;-79
2023/03/30 14:04:39;;;;;;;37.50;6.03;;;;;;;;;;4991240;28;99565;-79
2023/03/30 14:07:19;;;;;;;32.58;5.43;;;;;;;;;;4992308;28;98524;-80
2023/03/30 14:10:04;;;;;;;29.80;4.22;;;;;;;;;;4991455;28;99007;-79
2023/03/30 14:12:31;;;;;;;23.33;4.40;;;;;;;;;;4991063;28;100895;-80
2023/03/30 14:14:57;;;;;;;29.83;5.10;;;;;;;;;;4991712;28;99010;-80
2023/03/30 14:17:24;;;;;;;28.45;4.00;;;;;;;;;;5005003;28;99179;-79
2023/03/30 14:20:14;;;;;;;19.63;3.38;;;;;;;;;;4985719;28;99286;-78
2023/03/30 14:22:43;;;;;;;22.83;4.68;;;;;;;;;;4980226;28;98700;-79
2023/03/30 14:25:25;;;;;;;29.92;5.32;;;;;;;;;;4978175;28;100213;-79
2023/03/30 14:27:51;;;;;;;25.27;4.47;;;;;;;;;;4990389;28;98584;-79
2023/03/30 14:30:17;;;;;;;18.98;4.03;;;;;;;;;;4985818;28;99611;-78
2023/03/30 14:32:44;;;;;;;27.13;4.20;;;;;;;;;;4991844;28;99436;-77
2023/03/30 14:35:14;;;;;;;23.77;4.00;;;;;;;;;;4991710;28;98528;-77
2023/03/30 14:37:41;;;;;;;;;;;;;;;;;;4989324;28;100227;-77
2023/03/30 14:40:14;;;;;;;22.58;4.13;;;;;;;;;;4978410;28;128375;-78
2023/03/30 14:42:40;;;;;;;;;;;;;;;;;;4983502;28;98352;-77
2023/03/30 14:45:08;;;;;;;26.80;4.55;;;;;;;;;;4988180;28;125744;-78
2023/03/30 14:47:36;;;;;;;26.05;4.25;;;;;;;;;;4979615;28;100565;-78
2023/03/30 14:50:04;;;;;;;21.67;4.53;;;;;;;;;;4980652;28;99757;-78
2023/03/30 14:52:32;;;;;;;27.15;4.25;;;;;;;;;;4970259;28;100552;-78